createdAt,value
2019-01-14T00:01:01.429Z,97812.41
2019-01-14T00:03:28.297Z,97814.81
2019-01-14T00:05:55.012Z,97821.39
2019-01-14T00:08:22.012Z,97808.83
2019-01-14T00:10:48.757Z,97808.83
2019-01-14T00:13:15.620Z,97814.61
2019-01-14T00:15:42.363Z,97809.34
2019-01-14T00:18:09.211Z,97818.55
2019-01-14T00:20:36.051Z,97812.78
2019-01-14T00:23:02.914Z,97804.41
2019-01-14T00:25:30.779Z,97809.95
2019-01-14T00:27:57.589Z,97811.05
2019-01-14T00:30:24.374Z,97817.61
2019-01-14T00:32:51.589Z,97817.61
2019-01-14T00:35:18.359Z,97829.44
2019-01-14T00:37:45.130Z,97829.72
2019-01-14T00:40:14.075Z,97831.55
2019-01-14T00:42:41.456Z,97833.89
2019-01-14T00:45:08.423Z,97852.56
2019-01-14T00:47:36.819Z,97851.25
2019-01-14T00:50:04.134Z,97853.12
2019-01-14T00:52:31.357Z,97863.35
2019-01-14T00:54:58.100Z,97869.39
2019-01-14T00:57:24.872Z,97865.98
2019-01-14T00:59:51.638Z,97873.33
2019-01-14T01:02:18.430Z,97877.00
2019-01-14T01:04:45.285Z,97874.61
2019-01-14T01:07:12.192Z,97871.50
2019-01-14T01:09:38.960Z,97871.50
2019-01-14T01:12:06.248Z,97874.13
2019-01-14T01:14:33.532Z,97874.41
2019-01-14T01:17:00.511Z,97888.33
2019-01-14T01:19:27.291Z,97905.36
2019-01-14T01:21:54.162Z,97911.16
2019-01-14T01:24:21.723Z,97908.02
2019-01-14T01:26:48.479Z,97918.52
2019-01-14T01:29:15.627Z,97922.44
2019-01-14T01:31:42.396Z,97926.65
2019-01-14T01:34:09.137Z,97924.55
2019-01-14T01:36:35.862Z,97930.56
2019-01-14T01:39:05.785Z,97940.30
2019-01-14T01:41:32.582Z,97944.77
2019-01-14T01:43:59.360Z,97936.34
2019-01-14T01:46:26.190Z,97946.84
2019-01-14T01:48:53.464Z,97939.48
2019-01-14T01:51:20.237Z,97942.38
2019-01-14T01:53:47.486Z,97954.20
2019-01-14T01:56:14.223Z,97949.98
2019-01-14T01:58:41.335Z,97958.94
2019-01-14T02:01:08.059Z,97957.59
2019-01-14T02:03:34.899Z,97966.00
2019-01-14T02:06:01.944Z,97972.08
2019-01-14T02:08:29.066Z,97978.90
2019-01-14T02:10:56.368Z,97977.34
2019-01-14T02:13:23.642Z,97983.11
2019-01-14T02:15:50.857Z,97986.50
2019-01-14T02:18:17.985Z,97996.77
2019-01-14T02:20:46.270Z,97999.64
2019-01-14T02:23:13.039Z,98005.16
2019-01-14T02:25:39.889Z,98003.84
2019-01-14T02:28:06.597Z,98004.63
2019-01-14T02:30:33.431Z,98012.50
2019-01-14T02:33:00.140Z,98024.88
2019-01-14T02:35:26.889Z,98025.90
2019-01-14T02:37:53.816Z,98021.17
2019-01-14T02:40:21.234Z,98025.91
2019-01-14T02:42:47.957Z,98025.91
2019-01-14T02:45:15.650Z,98033.00
2019-01-14T02:47:42.510Z,98039.56
2019-01-14T02:50:09.835Z,98039.32
2019-01-14T02:52:39.800Z,98044.04
2019-01-14T02:55:05.596Z,98041.14
2019-01-14T02:57:32.360Z,98038.52
2019-01-14T02:59:59.410Z,98045.34
2019-01-14T03:02:26.147Z,98040.35
2019-01-14T03:04:52.962Z,98045.61
2019-01-14T03:07:19.752Z,98052.70
2019-01-14T03:09:46.504Z,98056.39
2019-01-14T03:12:13.607Z,98063.19
2019-01-14T03:14:40.636Z,98064.78
2019-01-14T03:17:07.377Z,98060.31
2019-01-14T03:19:34.257Z,98070.29
2019-01-14T03:22:01.145Z,98076.33
2019-01-14T03:24:27.894Z,98077.92
2019-01-14T03:26:54.676Z,98079.25
2019-01-14T03:29:21.592Z,98073.98
2019-01-14T03:31:48.781Z,98076.09
2019-01-14T03:34:15.614Z,98075.30
2019-01-14T03:36:42.507Z,98075.03
2019-01-14T03:39:09.227Z,98074.50
2019-01-14T03:41:35.947Z,98077.12
2019-01-14T03:44:03.255Z,98077.38
2019-01-14T03:46:29.979Z,98065.02
2019-01-14T03:48:56.688Z,98065.80
2019-01-14T03:51:23.504Z,98059.51
2019-01-14T03:53:50.396Z,98062.13
2019-01-14T03:56:17.555Z,98065.77
2019-01-14T03:58:44.292Z,98083.14
2019-01-14T04:01:14.773Z,98077.10
2019-01-14T04:03:41.509Z,98074.48
2019-01-14T04:06:10.695Z,98069.20
2019-01-14T04:08:37.541Z,98071.56
2019-01-14T04:11:04.392Z,98080.73
2019-01-14T04:13:31.429Z,98092.53
2019-01-14T04:15:58.185Z,98097.52
2019-01-14T04:18:25.075Z,98109.07
2019-01-14T04:20:51.867Z,98113.53
2019-01-14T04:23:18.658Z,98120.58
2019-01-14T04:25:47.130Z,98114.75
2019-01-14T04:28:13.879Z,98120.58
2019-01-14T04:30:40.636Z,98124.25
2019-01-14T04:33:07.507Z,98127.95
2019-01-14T04:35:34.398Z,98133.78
2019-01-14T04:38:01.424Z,98133.78
2019-01-14T04:40:28.213Z,98139.29
2019-01-14T04:42:54.907Z,98145.62
2019-01-14T04:45:21.651Z,98137.73
2019-01-14T04:47:48.407Z,98127.47
2019-01-14T04:50:17.150Z,98127.20
2019-01-14T04:52:43.880Z,98125.87
2019-01-14T04:55:10.656Z,98131.08
2019-01-14T04:57:37.361Z,98121.88
2019-01-14T05:00:08.155Z,98141.34
2019-01-14T05:02:34.890Z,98138.16
2019-01-14T05:05:01.725Z,98153.62
2019-01-14T05:07:31.410Z,98151.55
2019-01-14T05:09:58.194Z,98162.05
2019-01-14T05:12:24.951Z,98159.14
2019-01-14T05:14:52.193Z,98169.88
2019-01-14T05:17:19.034Z,98164.87
2019-01-14T05:19:45.785Z,98171.70
2019-01-14T05:22:12.570Z,98179.85
2019-01-14T05:24:39.470Z,98185.61
2019-01-14T05:27:06.250Z,98188.02
2019-01-14T05:29:33.033Z,98185.65
2019-01-14T05:31:59.975Z,98189.09
2019-01-14T05:34:26.711Z,98192.17
2019-01-14T05:36:53.486Z,98188.25
2019-01-14T05:39:20.226Z,98196.18
2019-01-14T05:41:47.199Z,98194.09
2019-01-14T05:44:14.124Z,98193.31
2019-01-14T05:46:40.888Z,98198.28
2019-01-14T05:49:07.700Z,98202.21
2019-01-14T05:51:34.634Z,98200.67
2019-01-14T05:54:01.739Z,98205.14
2019-01-14T05:56:31.710Z,98205.86
2019-01-14T05:58:58.516Z,98205.86
2019-01-14T06:01:25.465Z,98223.72
2019-01-14T06:03:52.583Z,98215.09
2019-01-14T06:06:19.458Z,98225.34
2019-01-14T06:08:46.307Z,98219.02
2019-01-14T06:11:13.333Z,98220.83
2019-01-14T06:13:40.071Z,98220.83
2019-01-14T06:16:07.180Z,98230.28
2019-01-14T06:18:36.795Z,98228.97
2019-01-14T06:21:03.560Z,98222.61
2019-01-14T06:23:30.640Z,98228.17
2019-01-14T06:25:57.423Z,98232.63
2019-01-14T06:28:24.268Z,98234.69
2019-01-14T06:30:51.514Z,98234.69
2019-01-14T06:33:18.365Z,98233.59
2019-01-14T06:35:45.374Z,98241.40
2019-01-14T06:38:12.812Z,98245.57
2019-01-14T06:40:39.744Z,98256.28
2019-01-14T06:43:06.493Z,98249.44
2019-01-14T06:45:33.282Z,98255.77
2019-01-14T06:48:00.313Z,98259.22
2019-01-14T06:50:27.068Z,98254.58
2019-01-14T06:52:53.882Z,98254.58
2019-01-14T06:55:21.439Z,98255.09
2019-01-14T06:57:48.473Z,98263.23
2019-01-14T07:00:17.966Z,98270.25
2019-01-14T07:02:44.932Z,98287.40
2019-01-14T07:05:11.863Z,98287.40
2019-01-14T07:07:38.657Z,98293.95
2019-01-14T07:10:07.409Z,98293.63
2019-01-14T07:12:34.558Z,98303.11
2019-01-14T07:15:01.329Z,98325.16
2019-01-14T07:17:28.330Z,98325.16
2019-01-14T07:19:55.078Z,98336.17
2019-01-14T07:22:21.815Z,98325.89
2019-01-14T07:24:48.517Z,98348.52
2019-01-14T07:27:15.755Z,98340.90
2019-01-14T07:29:42.998Z,98351.98
2019-01-14T07:32:09.860Z,98340.97
2019-01-14T07:34:36.844Z,98343.10
2019-01-14T07:37:03.816Z,98343.10
2019-01-14T07:39:30.575Z,98353.88
2019-01-14T07:41:57.444Z,98351.02
2019-01-14T07:44:24.651Z,98367.66
2019-01-14T07:46:51.560Z,98376.60
2019-01-14T07:49:18.300Z,98378.14
2019-01-14T07:51:45.044Z,98384.24
2019-01-14T07:54:11.767Z,98384.19
2019-01-14T07:56:39.051Z,98384.19
2019-01-14T07:59:06.201Z,98384.37
2019-01-14T08:01:32.929Z,98397.03
2019-01-14T08:03:59.665Z,98412.02
2019-01-14T08:06:26.452Z,98412.02
2019-01-14T08:08:53.386Z,98402.55
2019-01-14T08:11:20.350Z,98406.23
2019-01-14T08:13:47.127Z,98371.94
2019-01-14T08:16:14.027Z,98402.58
2019-01-14T08:18:40.946Z,98395.14
2019-01-14T08:21:07.736Z,98388.81
2019-01-14T08:23:34.656Z,98403.02
2019-01-14T08:26:01.426Z,98407.75
2019-01-14T08:28:28.284Z,98401.25
2019-01-14T08:30:56.408Z,98401.25
2019-01-14T08:33:23.564Z,98409.60
2019-01-14T08:35:50.455Z,98414.05
2019-01-14T08:38:21.138Z,98407.75
2019-01-14T08:40:46.170Z,98420.61
2019-01-14T08:43:13.114Z,98420.61
2019-01-14T08:45:40.461Z,98416.73
2019-01-14T08:48:07.251Z,98413.36
2019-01-14T08:50:34.221Z,98423.48
2019-01-14T08:53:01.505Z,98423.42
2019-01-14T08:55:29.756Z,98438.97
2019-01-14T08:57:56.885Z,98438.97
2019-01-14T09:00:23.735Z,98450.59
2019-01-14T09:02:50.870Z,98445.64
2019-01-14T09:05:17.749Z,98443.52
2019-01-14T09:07:44.924Z,98445.89
2019-01-14T09:10:15.917Z,98450.03
2019-01-14T09:12:43.659Z,98450.03
2019-01-14T09:15:11.503Z,98451.60
2019-01-14T09:17:38.566Z,98451.60
2019-01-14T09:20:08.721Z,98457.16
2019-01-14T09:22:35.647Z,98452.77
2019-01-14T09:25:02.890Z,98449.95
2019-01-14T09:27:29.747Z,98458.94
2019-01-14T09:29:56.698Z,98457.83
2019-01-14T09:32:23.446Z,98463.62
2019-01-14T09:34:53.362Z,98462.56
2019-01-14T09:37:27.323Z,98458.60
2019-01-14T09:39:54.075Z,98458.34
2019-01-14T09:42:21.308Z,98464.61
2019-01-14T09:44:48.298Z,98460.13
2019-01-14T09:47:15.053Z,98462.19
2019-01-14T09:49:45.622Z,98461.18
2019-01-14T09:52:10.740Z,98457.22
2019-01-14T09:54:37.490Z,98479.84
2019-01-14T09:57:06.306Z,98479.84
2019-01-14T09:59:37.850Z,98474.08
2019-01-14T10:02:04.700Z,98482.26
2019-01-14T10:04:31.441Z,98471.99
2019-01-14T10:06:58.313Z,98471.99
2019-01-14T10:09:25.215Z,98475.39
2019-01-14T10:11:52.065Z,98480.20
2019-01-14T10:14:18.981Z,98480.20
2019-01-14T10:16:49.271Z,98477.32
2019-01-14T10:19:16.050Z,98473.33
2019-01-14T10:21:43.085Z,98483.58
2019-01-14T10:24:10.008Z,98480.69
2019-01-14T10:26:36.664Z,98474.38
2019-01-14T10:29:03.422Z,98485.97
2019-01-14T10:31:30.563Z,98485.97
2019-01-14T10:33:57.296Z,98485.20
2019-01-14T10:36:24.138Z,98481.00
2019-01-14T10:38:51.070Z,98489.06
2019-01-14T10:41:17.916Z,98483.86
2019-01-14T10:43:44.868Z,98473.53
2019-01-14T10:46:11.776Z,98482.21
2019-01-14T10:48:40.530Z,98479.12
2019-01-14T10:51:07.446Z,98475.95
2019-01-14T10:53:34.494Z,98487.16
2019-01-14T10:56:01.434Z,98487.16
2019-01-14T10:58:28.167Z,98489.37
2019-01-14T11:00:55.072Z,98488.12
2019-01-14T11:03:22.086Z,98492.34
2019-01-14T11:05:48.811Z,98501.27
2019-01-14T11:08:17.114Z,98492.77
2019-01-14T11:10:43.957Z,98490.94
2019-01-14T11:13:10.813Z,98488.05
2019-01-14T11:15:37.800Z,98488.05
2019-01-14T11:18:04.654Z,98493.89
2019-01-14T11:20:32.177Z,98493.89
2019-01-14T11:22:59.989Z,98494.13
2019-01-14T11:25:26.934Z,98494.64
2019-01-14T11:27:53.682Z,98493.05
2019-01-14T11:30:23.213Z,98501.96
2019-01-14T11:32:49.986Z,98508.20
2019-01-14T11:35:17.146Z,98501.92
2019-01-14T11:37:46.482Z,98507.27
2019-01-14T11:40:18.804Z,98503.89
2019-01-14T11:42:45.540Z,98524.11
2019-01-14T11:45:12.363Z,98514.58
2019-01-14T11:47:39.137Z,98514.09
2019-01-14T11:50:07.781Z,98527.47
2019-01-14T11:52:34.752Z,98526.41
2019-01-14T11:55:02.384Z,98520.61
2019-01-14T11:57:30.636Z,98520.61
2019-01-14T11:59:57.535Z,98534.70
2019-01-14T12:02:24.403Z,98534.70
2019-01-14T12:04:51.175Z,98534.80
2019-01-14T12:07:17.911Z,98527.18
2019-01-14T12:09:44.665Z,98539.94
2019-01-14T12:12:11.819Z,98542.89
2019-01-14T12:14:38.980Z,98653.17
2019-01-14T12:17:05.939Z,98642.70
2019-01-14T12:19:34.222Z,98629.34
2019-01-14T12:22:02.842Z,98633.09
2019-01-14T12:24:29.652Z,98633.09
2019-01-14T12:26:56.390Z,98623.31
2019-01-14T12:29:23.296Z,98642.66
2019-01-14T12:31:50.006Z,98642.66
2019-01-14T12:34:17.207Z,98639.30
2019-01-14T12:36:43.934Z,98640.08
2019-01-14T12:39:19.292Z,98603.42
2019-01-14T12:41:50.947Z,98639.98
2019-01-14T12:44:12.428Z,98653.08
2019-01-14T12:46:39.326Z,98657.62
2019-01-14T12:49:06.342Z,98619.64
2019-01-14T12:51:34.753Z,98664.22
2019-01-14T12:54:01.780Z,98664.22
2019-01-14T12:56:28.567Z,98675.19
2019-01-14T12:58:55.307Z,98675.19
2019-01-14T13:01:22.098Z,98670.01
2019-01-14T13:03:48.901Z,98677.81
2019-01-14T13:06:15.883Z,98677.81
2019-01-14T13:08:42.837Z,98669.70
2019-01-14T13:11:09.675Z,98677.53
2019-01-14T13:13:36.453Z,98675.77
2019-01-14T13:16:03.527Z,98675.77
2019-01-14T13:18:30.478Z,98698.22
2019-01-14T13:20:57.248Z,98698.22
2019-01-14T13:23:24.035Z,98698.06
2019-01-14T13:25:51.006Z,98699.58
2019-01-14T13:28:17.723Z,98710.63
2019-01-14T13:30:44.963Z,98695.27
2019-01-14T13:33:11.753Z,98695.27
2019-01-14T13:35:39.541Z,98693.60
2019-01-14T13:38:06.295Z,98701.31
2019-01-14T13:40:33.084Z,98705.05
2019-01-14T13:42:59.782Z,98709.86
2019-01-14T13:45:26.579Z,98709.12
2019-01-14T13:47:53.356Z,98714.17
2019-01-14T13:50:22.245Z,98719.41
2019-01-14T13:52:49.080Z,98712.25
2019-01-14T13:55:15.853Z,98723.55
2019-01-14T13:57:43.082Z,98729.36
2019-01-14T14:00:19.351Z,98736.98
2019-01-14T14:02:46.377Z,98741.24
2019-01-14T14:05:15.377Z,98746.83
2019-01-14T14:07:42.216Z,98751.06
2019-01-14T14:10:13.066Z,98750.34
2019-01-14T14:12:40.085Z,98751.98
2019-01-14T14:15:08.007Z,98760.61
2019-01-14T14:17:37.424Z,98760.57
2019-01-14T14:20:06.943Z,98768.32
2019-01-14T14:22:33.814Z,98762.29
2019-01-14T14:25:00.866Z,98762.29
2019-01-14T14:27:27.797Z,98759.66
2019-01-14T14:29:54.643Z,98768.23
2019-01-14T14:32:21.494Z,98750.40
2019-01-14T14:34:48.350Z,98756.75
2019-01-14T14:37:15.195Z,98764.11
2019-01-14T14:39:48.400Z,98766.14
2019-01-14T14:42:10.913Z,98757.36
2019-01-14T14:44:37.937Z,98769.27
2019-01-14T14:47:04.779Z,98713.11
2019-01-14T14:49:31.748Z,98774.77
2019-01-14T14:51:58.791Z,98774.25
2019-01-14T14:54:25.920Z,98783.44
2019-01-14T14:56:52.776Z,98783.44
2019-01-14T14:59:19.586Z,98788.78
2019-01-14T15:01:47.281Z,98783.48
2019-01-14T15:04:14.329Z,98783.48
2019-01-14T15:06:41.215Z,98803.58
2019-01-14T15:09:10.872Z,98804.67
2019-01-14T15:11:37.680Z,98804.67
2019-01-14T15:14:04.781Z,98819.16
2019-01-14T15:16:31.549Z,98804.03
2019-01-14T15:18:58.619Z,98834.27
2019-01-14T15:21:25.425Z,98850.13
2019-01-14T15:23:52.260Z,98851.80
2019-01-14T15:26:19.059Z,98854.25
2019-01-14T15:28:45.962Z,98885.91
2019-01-14T15:31:14.381Z,98885.91
2019-01-14T15:33:41.925Z,98890.73
2019-01-14T15:36:08.695Z,98892.15
2019-01-14T15:38:37.679Z,98892.15
2019-01-14T15:41:04.793Z,98892.15
2019-01-14T15:43:31.717Z,98904.72
2019-01-14T15:45:58.446Z,98898.35
2019-01-14T15:48:25.332Z,98902.50
2019-01-14T15:50:52.120Z,98908.89
2019-01-14T15:53:18.996Z,98902.24
2019-01-14T15:55:45.941Z,98906.69
2019-01-14T15:58:15.957Z,98923.74
2019-01-14T16:00:42.698Z,98912.59
2019-01-14T16:03:09.626Z,98916.19
2019-01-14T16:05:36.354Z,98916.19
2019-01-14T16:08:03.226Z,98926.08
2019-01-14T16:10:30.470Z,98926.39
2019-01-14T16:12:57.310Z,98932.08
2019-01-14T16:15:24.486Z,98938.92
2019-01-14T16:17:51.358Z,98925.25
2019-01-14T16:20:22.072Z,98948.61
2019-01-14T16:22:48.841Z,98944.06
2019-01-14T16:25:15.728Z,98955.53
2019-01-14T16:27:42.495Z,98957.67
2019-01-14T16:30:16.008Z,98957.67
2019-01-14T16:32:43.203Z,98957.32
2019-01-14T16:35:10.873Z,98967.64
2019-01-14T16:37:37.698Z,98968.06
2019-01-14T16:40:07.778Z,98975.13
2019-01-14T16:42:34.540Z,98980.73
2019-01-14T16:45:01.432Z,98983.41
2019-01-14T16:47:28.282Z,98981.84
2019-01-14T16:49:55.930Z,98981.84
2019-01-14T16:52:22.705Z,98995.05
2019-01-14T16:54:49.480Z,98999.92
2019-01-14T16:57:16.359Z,99008.23
2019-01-14T16:59:43.335Z,99023.97
2019-01-14T17:02:12.647Z,99006.45
2019-01-14T17:04:39.515Z,99014.44
2019-01-14T17:07:06.272Z,99014.44
2019-01-14T17:09:33.073Z,99027.58
2019-01-14T17:12:00.383Z,99027.58
2019-01-14T17:14:27.452Z,99032.42
2019-01-14T17:16:54.196Z,99041.42
2019-01-14T17:19:22.040Z,99039.55
2019-01-14T17:21:48.773Z,99053.80
2019-01-14T17:24:15.586Z,99061.48
2019-01-14T17:26:42.442Z,99061.48
2019-01-14T17:29:09.763Z,99059.48
2019-01-14T17:31:39.532Z,99059.86
2019-01-14T17:34:06.625Z,99056.77
2019-01-14T17:36:33.570Z,99060.12
2019-01-14T17:39:00.329Z,99067.20
2019-01-14T17:41:28.179Z,99067.20
2019-01-14T17:43:55.050Z,99074.84
2019-01-14T17:46:22.237Z,99073.00
2019-01-14T17:48:49.196Z,99070.34
2019-01-14T17:51:16.760Z,99068.92
2019-01-14T17:53:43.540Z,99068.92
2019-01-14T17:56:10.312Z,99084.30
2019-01-14T17:58:37.619Z,99075.39
2019-01-14T18:01:04.444Z,99075.39
2019-01-14T18:03:31.253Z,99074.35
2019-01-14T18:05:58.334Z,99085.67
2019-01-14T18:08:27.100Z,99086.59
2019-01-14T18:10:53.841Z,99086.59
2019-01-14T18:13:20.672Z,99108.06
2019-01-14T18:15:47.403Z,99107.02
2019-01-14T18:18:14.884Z,99108.23
2019-01-14T18:20:41.745Z,99114.08
2019-01-14T18:23:12.396Z,99121.69
2019-01-14T18:25:39.319Z,99116.02
2019-01-14T18:28:06.446Z,99116.02
2019-01-14T18:30:33.283Z,99125.94
2019-01-14T18:33:00.146Z,99135.18
2019-01-14T18:35:26.911Z,99135.18
2019-01-14T18:37:54.019Z,99136.16
2019-01-14T18:40:20.873Z,99131.20
2019-01-14T18:42:47.603Z,99131.20
2019-01-14T18:45:16.080Z,99140.14
2019-01-14T18:47:43.308Z,99155.56
2019-01-14T18:50:12.846Z,99152.53
2019-01-14T18:52:39.638Z,99152.53
2019-01-14T18:55:06.483Z,99166.45
2019-01-14T18:57:33.264Z,99166.45
2019-01-14T19:00:00.403Z,99169.27
2019-01-14T19:02:27.292Z,99175.75
2019-01-14T19:04:54.161Z,99175.75
2019-01-14T19:07:21.302Z,99194.48
2019-01-14T19:09:50.534Z,99194.48
2019-01-14T19:12:17.298Z,99186.55
2019-01-14T19:14:44.066Z,99189.72
2019-01-14T19:17:10.909Z,99194.67
2019-01-14T19:19:37.848Z,99193.63
2019-01-14T19:22:04.595Z,99197.36
2019-01-14T19:24:31.402Z,99197.36
2019-01-14T19:26:58.135Z,99203.38
2019-01-14T19:29:24.922Z,99217.20
2019-01-14T19:31:51.765Z,99220.58
2019-01-14T19:34:18.642Z,99220.58
2019-01-14T19:36:45.681Z,99224.54
2019-01-14T19:39:12.437Z,99239.02
2019-01-14T19:41:39.700Z,99245.25
2019-01-14T19:44:06.828Z,99245.25
2019-01-14T19:46:33.685Z,99249.02
2019-01-14T19:49:00.624Z,99261.00
2019-01-14T19:51:27.680Z,99261.00
2019-01-14T19:53:54.536Z,99268.16
2019-01-14T19:56:21.403Z,99268.16
2019-01-14T19:58:50.197Z,99278.86
2019-01-14T20:01:16.988Z,99282.13
2019-01-14T20:03:43.710Z,99282.64
2019-01-14T20:06:10.993Z,99282.64
2019-01-14T20:08:37.989Z,99286.90
2019-01-14T20:11:09.176Z,99278.19
2019-01-14T20:13:33.781Z,99278.19
2019-01-14T20:16:00.642Z,99277.25
2019-01-14T20:18:27.582Z,99286.34
2019-01-14T20:20:54.352Z,99293.65
2019-01-14T20:23:21.083Z,99297.28
2019-01-14T20:25:47.879Z,99297.28
2019-01-14T20:28:14.861Z,99307.66
2019-01-14T20:30:42.478Z,99309.48
2019-01-14T20:33:09.395Z,99282.19
2019-01-14T20:35:36.243Z,99281.98
2019-01-14T20:38:03.118Z,99281.98
2019-01-14T20:40:29.889Z,99281.10
2019-01-14T20:42:57.108Z,99286.62
2019-01-14T20:45:23.945Z,99286.27
2019-01-14T20:47:50.708Z,99278.13
2019-01-14T20:50:18.793Z,99280.52
2019-01-14T20:52:45.669Z,99280.52
2019-01-14T20:55:12.747Z,99281.33
2019-01-14T20:57:39.486Z,99280.44
2019-01-14T21:00:16.963Z,99283.66
2019-01-14T21:02:45.273Z,99283.66
2019-01-14T21:05:12.441Z,99290.74
2019-01-14T21:07:39.356Z,99290.74
2019-01-14T21:10:08.985Z,99293.61
2019-01-14T21:12:36.275Z,99286.30
2019-01-14T21:15:03.602Z,99286.30
2019-01-14T21:17:30.412Z,99290.19
2019-01-14T21:19:57.418Z,99292.16
2019-01-14T21:22:24.496Z,99292.16
2019-01-14T21:24:51.307Z,99278.27
2019-01-14T21:27:18.081Z,99295.52
2019-01-14T21:29:50.261Z,99300.03
2019-01-14T21:32:17.022Z,99294.36
2019-01-14T21:34:43.872Z,99294.36
2019-01-14T21:37:10.653Z,99311.92
2019-01-14T21:39:37.408Z,99308.00
2019-01-14T21:42:04.597Z,99308.00
2019-01-14T21:44:31.425Z,99316.56
2019-01-14T21:46:58.567Z,99316.56
2019-01-14T21:49:25.448Z,99320.97
2019-01-14T21:51:52.344Z,99326.84
2019-01-14T21:54:19.161Z,99327.59
2019-01-14T21:56:46.072Z,99321.84
2019-01-14T21:59:13.182Z,99313.66
2019-01-14T22:01:40.043Z,99313.66
2019-01-14T22:04:07.194Z,99318.47
2019-01-14T22:06:34.013Z,99332.45
2019-01-14T22:09:00.796Z,99331.73
2019-01-14T22:11:27.537Z,99332.73
2019-01-14T22:13:54.502Z,99331.49
2019-01-14T22:16:21.475Z,99329.83
2019-01-14T22:18:49.521Z,99330.34
2019-01-14T22:21:16.362Z,99330.34
2019-01-14T22:23:43.243Z,99343.52
2019-01-14T22:26:09.984Z,99322.80
2019-01-14T22:28:37.233Z,99322.80
2019-01-14T22:31:04.006Z,99328.34
2019-01-14T22:33:30.923Z,99346.92
2019-01-14T22:35:57.857Z,99345.53
2019-01-14T22:38:25.033Z,99356.68
2019-01-14T22:40:51.923Z,99356.68
2019-01-14T22:43:18.719Z,99356.38
2019-01-14T22:45:45.763Z,99363.64
2019-01-14T22:48:12.497Z,99371.05
2019-01-14T22:50:39.350Z,99372.36
2019-01-14T22:53:06.386Z,99378.45
2019-01-14T22:55:33.102Z,99370.34
2019-01-14T22:57:59.910Z,99370.34
2019-01-14T23:01:09.722Z,99383.56
2019-01-14T23:03:36.928Z,99378.63
2019-01-14T23:06:04.373Z,99384.05
2019-01-14T23:08:31.170Z,99384.05
2019-01-14T23:10:58.004Z,99379.86
2019-01-14T23:13:24.754Z,99369.36
2019-01-14T23:15:51.705Z,99389.55
2019-01-14T23:18:18.496Z,99389.55
2019-01-14T23:20:45.221Z,99386.56
2019-01-14T23:23:12.014Z,99383.08
2019-01-14T23:25:39.178Z,99403.30
2019-01-14T23:28:06.014Z,99403.05
2019-01-14T23:30:32.739Z,99403.05
2019-01-14T23:32:59.605Z,99403.84
2019-01-14T23:35:26.334Z,99410.48
2019-01-14T23:37:53.501Z,99410.48
2019-01-14T23:40:21.361Z,99411.84
2019-01-14T23:42:48.631Z,99414.23
2019-01-14T23:45:15.512Z,99413.45
2019-01-14T23:47:42.381Z,99417.66
2019-01-14T23:50:13.445Z,99421.55
2019-01-14T23:52:40.310Z,99421.55
2019-01-14T23:55:07.141Z,99416.95
2019-01-14T23:57:33.864Z,99414.37
